Time;durP1;ratioP1;P1;durP2;ratioP2;P2;SDS_P1;SDS_P2;PMS_P1;PMS_P2;Temp;Humidity;BMP_temperature;BMP_pressure;BME280_temperature;BME280_humidity;BME280_pressure;Samples;Min_cycle;Max_cycle;Signal;HPM_P1;HPM_P2
2024/01/27 00:00:20;;;;;;;4.20;3.00;;;;;;;3.45;100.00;98108.22;106790;1269;22531;-83
2024/01/27 00:03:08;;;;;;;5.90;3.80;;;;;;;3.34;100.00;98114.58;106951;1272;24523;-85
2024/01/27 00:05:36;;;;;;;6.50;3.90;;;;;;;3.23;100.00;98134.03;106907;1273;25386;-85
2024/01/27 00:08:05;;;;;;;5.40;3.80;;;;;;;3.09;100.00;98132.77;106948;1265;22593;-83
2024/01/27 00:10:33;;;;;;;6.40;3.80;;;;;;;2.98;100.00;98136.39;107096;1279;22624;-82
2024/01/27 00:13:01;;;;;;;7.30;3.70;;;;;;;2.93;100.00;98138.48;107011;1280;24248;-83
2024/01/27 00:15:29;;;;;;;6.10;4.20;;;;;;;2.91;100.00;98154.54;107164;1280;22591;-83
2024/01/27 00:17:57;;;;;;;6.80;4.10;;;;;;;2.90;100.00;98165.70;106967;1279;23016;-82
2024/01/27 00:20:25;;;;;;;7.50;4.00;;;;;;;2.89;100.00;98177.24;106862;1280;24252;-82
2024/01/27 00:22:53;;;;;;;6.40;4.10;;;;;;;2.92;100.00;98189.58;107007;1279;22735;-84
2024/01/27 00:25:21;;;;;;;6.70;3.90;;;;;;;2.93;100.00;98192.90;106948;1280;22541;-85
2024/01/27 00:27:49;;;;;;;6.10;3.90;;;;;;;2.93;100.00;98199.39;106889;1281;22540;-85
2024/01/27 00:30:18;;;;;;;7.60;4.80;;;;;;;2.95;100.00;98201.92;107062;1280;22673;-84
2024/01/27 00:32:46;;;;;;;6.90;4.70;;;;;;;2.97;100.00;98212.98;107113;1280;22540;-82
2024/01/27 00:35:14;;;;;;;7.80;4.70;;;;;;;2.97;100.00;98216.91;106902;1279;25158;-83
2024/01/27 00:37:42;;;;;;;9.20;5.60;;;;;;;2.98;100.00;98237.11;106937;1279;22568;-82
2024/01/27 00:40:11;;;;;;;6.70;4.80;;;;;;;2.99;100.00;98224.83;106915;1280;22782;-82
2024/01/27 00:42:40;;;;;;;7.40;4.10;;;;;;;2.99;100.00;98234.04;106765;1275;22603;-83
2024/01/27 00:45:08;;;;;;;7.20;4.80;;;;;;;2.99;100.00;98241.11;106877;1280;25915;-84
2024/01/27 00:47:36;;;;;;;10.70;5.00;;;;;;;3.00;100.00;98246.25;106953;1273;22549;-81
2024/01/27 00:50:05;;;;;;;10.00;5.10;;;;;;;3.00;100.00;98246.99;106950;1265;22619;-83
2024/01/27 00:52:35;;;;;;;10.70;5.80;;;;;;;2.99;100.00;98246.48;107627;1273;22562;-81
2024/01/27 00:55:03;;;;;;;10.60;5.00;;;;;;;3.02;100.00;98249.84;108072;1266;25574;-81
2024/01/27 00:57:31;;;;;;;9.20;5.00;;;;;;;3.02;100.00;98251.66;106901;1280;23969;-82
2024/01/27 00:59:59;;;;;;;10.70;5.40;;;;;;;3.02;100.00;98252.25;106779;1279;23903;-82
2024/01/27 01:02:28;;;;;;;8.90;4.60;;;;;;;3.02;100.00;98238.09;106760;1280;23335;-82
2024/01/27 01:04:57;;;;;;;12.10;5.40;;;;;;;3.01;100.00;98243.40;106835;1279;22600;-82
2024/01/27 01:07:25;;;;;;;7.20;4.20;;;;;;;2.99;100.00;98243.36;106876;1279;25233;-80
2024/01/27 01:09:53;;;;;;;8.50;4.20;;;;;;;2.99;100.00;98251.88;106829;1280;25415;-80
2024/01/27 01:12:21;;;;;;;11.20;5.20;;;;;;;2.99;100.00;98249.11;107979;1265;22648;-81
2024/01/27 01:14:49;;;;;;;7.90;4.80;;;;;;;2.98;100.00;98266.98;108045;1273;22504;-83
2024/01/27 01:17:17;;;;;;;8.50;4.50;;;;;;;2.99;100.00;98258.15;107245;1280;22567;-81
2024/01/27 01:19:46;;;;;;;8.90;4.70;;;;;;;3.00;100.00;98266.08;107182;1280;25460;-84
2024/01/27 01:22:14;;;;;;;9.40;4.10;;;;;;;3.01;100.00;98272.47;106982;1280;22723;-88
2024/01/27 01:24:42;;;;;;;11.90;4.50;;;;;;;3.02;100.00;98276.15;106827;1280;25453;-81
2024/01/27 01:27:11;;;;;;;7.90;4.70;;;;;;;3.00;100.00;98279.05;106806;1276;22843;-82
2024/01/27 01:29:39;;;;;;;10.10;4.90;;;;;;;3.00;100.00;98278.03;107023;1279;22644;-82
2024/01/27 01:32:07;;;;;;;9.50;5.40;;;;;;;3.00;100.00;98283.48;106876;1266;25264;-84
2024/01/27 01:34:35;;;;;;;9.90;5.00;;;;;;;3.01;100.00;98284.71;107133;1279;25121;-84
2024/01/27 01:37:04;;;;;;;10.30;5.00;;;;;;;2.99;100.00;98288.24;107183;1279;24176;-85
2024/01/27 01:39:32;;;;;;;9.30;5.30;;;;;;;3.01;100.00;98286.58;107005;1281;22643;-85
2024/01/27 01:42:00;;;;;;;9.10;5.20;;;;;;;3.03;100.00;98302.52;106750;1280;23934;-86
2024/01/27 01:44:30;;;;;;;8.40;4.60;;;;;;;3.02;100.00;98301.81;106949;1280;23798;-86
2024/01/27 01:46:58;;;;;;;9.10;4.40;;;;;;;3.03;100.00;98293.36;106964;1280;25403;-85
2024/01/27 01:49:27;;;;;;;8.60;4.90;;;;;;;3.02;100.00;98297.18;106867;1280;23921;-85
2024/01/27 01:51:55;;;;;;;10.00;4.60;;;;;;;2.99;100.00;98298.56;106911;1273;22558;-84
2024/01/27 01:54:27;;;;;;;11.20;4.80;;;;;;;2.99;100.00;98307.50;106940;1280;22550;-86
2024/01/27 01:56:58;;;;;;;10.90;4.60;;;;;;;2.94;100.00;98314.07;106971;1275;24343;-85
2024/01/27 01:59:27;;;;;;;10.30;4.60;;;;;;;2.84;100.00;98327.69;106963;1265;25433;-85
2024/01/27 02:01:55;;;;;;;11.60;5.40;;;;;;;2.75;100.00;98308.52;106904;1273;22599;-84
2024/01/27 02:04:23;;;;;;;10.30;5.70;;;;;;;2.63;100.00;98316.54;106890;1279;25594;-84
2024/01/27 02:06:51;;;;;;;11.10;5.20;;;;;;;2.59;100.00;98314.80;106934;1279;25304;-83
2024/01/27 02:09:19;;;;;;;10.10;5.00;;;;;;;2.55;100.00;98312.23;106889;1256;22632;-85
2024/01/27 02:11:47;;;;;;;10.60;5.20;;;;;;;2.48;100.00;98313.05;106897;1273;22623;-85
2024/01/27 02:14:17;;;;;;;9.60;5.20;;;;;;;2.47;100.00;98313.19;106848;1276;25431;-84
2024/01/27 02:16:45;;;;;;;10.10;6.30;;;;;;;2.46;100.00;98311.37;106821;1276;22559;-83
2024/01/27 02:19:13;;;;;;;8.70;5.10;;;;;;;2.49;100.00;98316.80;106934;1280;25302;-83
2024/01/27 02:21:41;;;;;;;12.50;5.40;;;;;;;2.52;100.00;98319.85;106838;1279;24199;-83
2024/01/27 02:24:10;;;;;;;10.60;5.30;;;;;;;2.56;100.00;98318.73;106916;1274;22535;-82
2024/01/27 02:26:38;;;;;;;9.00;5.10;;;;;;;2.58;100.00;98314.80;106880;1279;22630;-83
2024/01/27 02:29:06;;;;;;;13.70;5.70;;;;;;;2.59;100.00;98322.16;108153;1280;22562;-82
2024/01/27 02:31:34;;;;;;;11.70;5.40;;;;;;;2.61;100.00;98322.41;107699;1280;25577;-82
2024/01/27 02:34:02;;;;;;;9.60;5.00;;;;;;;2.65;100.00;98322.43;106946;1279;22669;-83
2024/01/27 02:36:30;;;;;;;12.70;5.50;;;;;;;2.67;100.00;98313.48;106929;1273;22869;-83
2024/01/27 02:38:58;;;;;;;9.50;5.70;;;;;;;2.69;100.00;98320.91;106800;1280;25281;-83
2024/01/27 02:41:27;;;;;;;13.30;5.80;;;;;;;2.70;100.00;98327.27;106949;1275;22552;-84
2024/01/27 02:43:55;;;;;;;11.40;6.20;;;;;;;2.71;100.00;98328.83;106879;1280;24539;-83
2024/01/27 02:46:23;;;;;;;14.20;6.30;;;;;;;2.72;100.00;98319.90;106935;1279;24058;-83
2024/01/27 02:48:51;;;;;;;11.10;5.80;;;;;;;2.74;100.00;98328.55;106931;1279;22608;-84
2024/01/27 02:51:20;;;;;;;11.20;5.00;;;;;;;2.75;100.00;98331.40;107028;1279;22594;-83
2024/01/27 02:53:48;;;;;;;12.40;6.00;;;;;;;2.75;99.77;98337.16;106902;1279;22631;-84
2024/01/27 02:56:17;;;;;;;12.90;5.60;;;;;;;2.76;100.00;98326.84;106878;1280;23014;-84
2024/01/27 02:58:45;;;;;;;11.00;6.00;;;;;;;2.76;99.74;98327.58;106858;1280;25473;-85
2024/01/27 03:01:13;;;;;;;14.50;6.20;;;;;;;2.75;99.54;98333.54;106623;1281;22541;-85
2024/01/27 03:03:41;;;;;;;10.20;5.40;;;;;;;2.77;99.10;98337.67;106807;1281;22539;-84
2024/01/27 03:06:09;;;;;;;11.10;5.70;;;;;;;2.77;98.85;98340.17;107173;1277;23211;-86
2024/01/27 03:08:37;;;;;;;13.80;6.10;;;;;;;2.76;99.28;98348.40;109789;1280;22698;-85
2024/01/27 03:11:05;;;;;;;15.20;6.30;;;;;;;2.75;99.17;98343.16;107845;1281;25458;-85
2024/01/27 03:13:33;;;;;;;11.60;5.50;;;;;;;2.74;98.63;98358.86;106981;1280;22570;-85
2024/01/27 03:16:02;;;;;;;13.50;6.50;;;;;;;2.75;98.51;98349.33;106754;1262;23321;-84
2024/01/27 03:18:30;;;;;;;11.40;6.00;;;;;;;2.75;98.36;98360.52;106842;1280;24356;-85
2024/01/27 03:20:58;;;;;;;13.70;5.90;;;;;;;2.75;98.28;98358.22;106850;1279;24293;-85
2024/01/27 03:23:26;;;;;;;14.30;6.00;;;;;;;2.72;98.51;98352.00;106920;1280;22568;-85
2024/01/27 03:25:55;;;;;;;10.70;5.80;;;;;;;2.72;98.55;98348.37;107401;1280;22682;-85
2024/01/27 03:28:23;;;;;;;15.30;6.10;;;;;;;2.70;98.72;98355.85;106934;1280;25414;-85
2024/01/27 03:30:51;;;;;;;12.00;6.20;;;;;;;2.68;98.84;98353.84;106935;1280;22548;-86
2024/01/27 03:33:19;;;;;;;12.10;6.80;;;;;;;2.68;98.98;98361.50;106886;1280;22781;-88
2024/01/27 03:35:47;;;;;;;11.20;6.10;;;;;;;2.67;98.90;98370.20;106963;1280;22646;-88
2024/01/27 03:38:15;;;;;;;11.90;5.90;;;;;;;2.66;99.29;98383.92;106937;1267;24259;-88
2024/01/27 03:40:43;;;;;;;10.20;5.20;;;;;;;2.57;99.94;98388.04;106896;1280;22644;-86
2024/01/27 03:43:11;;;;;;;9.50;5.50;;;;;;;2.35;100.00;98397.36;106951;1280;22569;-86
2024/01/27 03:45:39;;;;;;;14.90;6.20;;;;;;;2.12;100.00;98401.33;106885;1280;23755;-84
2024/01/27 03:48:08;;;;;;;10.80;5.10;;;;;;;1.95;100.00;98395.73;106983;1280;22617;-84
2024/01/27 03:50:36;;;;;;;11.80;5.60;;;;;;;1.82;100.00;98391.07;107046;1280;24425;-83
2024/01/27 03:53:04;;;;;;;10.30;5.20;;;;;;;1.71;100.00;98380.43;106831;1280;22557;-83
2024/01/27 03:55:34;;;;;;;11.80;5.70;;;;;;;1.72;100.00;98384.77;106928;1272;23916;-83
2024/01/27 03:58:02;;;;;;;9.80;5.50;;;;;;;1.75;100.00;98381.65;106964;1272;24243;-83
2024/01/27 04:00:32;;;;;;;12.70;6.50;;;;;;;1.77;100.00;98390.58;106866;1280;25418;-83
2024/01/27 04:03:01;;;;;;;16.50;8.70;;;;;;;1.79;100.00;98398.23;106955;1280;22626;-82
2024/01/27 04:05:31;;;;;;;16.70;7.00;;;;;;;1.82;100.00;98402.27;108545;1275;22594;-82
2024/01/27 04:07:58;;;;;;;14.50;7.00;;;;;;;1.79;100.00;98413.90;107315;1280;22558;-83
2024/01/27 04:10:27;;;;;;;13.50;7.10;;;;;;;1.78;100.00;98417.27;106880;1280;22777;-83
2024/01/27 04:12:55;;;;;;;14.60;7.30;;;;;;;1.76;100.00;98422.27;106934;1276;22938;-83
2024/01/27 04:15:23;;;;;;;15.10;7.50;;;;;;;1.75;100.00;98422.15;106812;1279;24174;-84
2024/01/27 04:17:51;;;;;;;12.90;6.90;;;;;;;1.70;100.00;98427.88;106835;1279;22540;-83
2024/01/27 04:20:20;;;;;;;15.40;7.60;;;;;;;1.67;100.00;98431.98;106781;1280;22572;-82
2024/01/27 04:22:48;;;;;;;15.60;7.50;;;;;;;1.64;100.00;98426.02;106885;1275;24231;-83
2024/01/27 04:25:16;;;;;;;14.60;7.00;;;;;;;1.63;100.00;98427.84;106871;1275;22638;-82
2024/01/27 04:27:44;;;;;;;14.70;7.10;;;;;;;1.59;100.00;98435.61;106877;1280;22541;-82
2024/01/27 04:30:12;;;;;;;19.40;7.50;;;;;;;1.64;100.00;98423.89;106847;1280;22549;-82
2024/01/27 04:32:41;;;;;;;18.00;8.30;;;;;;;1.63;100.00;98425.26;106741;1280;26638;-81
2024/01/27 04:35:10;;;;;;;15.70;7.70;;;;;;;1.67;100.00;98420.83;106834;1272;22540;-82
2024/01/27 04:37:38;;;;;;;15.60;6.80;;;;;;;1.70;100.00;98417.35;106867;1273;24186;-81
2024/01/27 04:40:07;;;;;;;19.40;8.00;;;;;;;1.74;100.00;98421.16;106713;1266;22560;-82
2024/01/27 04:42:38;;;;;;;14.50;7.50;;;;;;;1.78;100.00;98425.47;106746;1276;25364;-81
2024/01/27 04:45:07;;;;;;;19.30;8.20;;;;;;;1.85;100.00;98424.18;106839;1279;22675;-82
2024/01/27 04:47:35;;;;;;;13.70;7.30;;;;;;;1.89;100.00;98425.09;106777;1279;22624;-82
2024/01/27 04:50:03;;;;;;;15.50;7.60;;;;;;;1.94;100.00;98429.26;106768;1280;22940;-82
2024/01/27 04:52:31;;;;;;;15.20;7.00;;;;;;;1.99;100.00;98442.70;106841;1279;22541;-82
2024/01/27 04:54:59;;;;;;;18.00;7.80;;;;;;;2.02;100.00;98442.09;106825;1275;22539;-82
2024/01/27 04:57:27;;;;;;;13.80;6.40;;;;;;;2.04;100.00;98441.77;106845;1273;22688;-84
2024/01/27 04:59:55;;;;;;;14.60;6.30;;;;;;;2.08;100.00;98449.48;106945;1279;25281;-85
2024/01/27 05:02:23;;;;;;;15.10;6.70;;;;;;;2.06;100.00;98445.75;108240;1275;23759;-83
2024/01/27 05:04:52;;;;;;;12.30;6.00;;;;;;;2.05;100.00;98462.41;107672;1281;22582;-82
2024/01/27 05:07:21;;;;;;;13.30;5.70;;;;;;;2.02;100.00;98452.52;106827;1281;22580;-83
2024/01/27 05:09:49;;;;;;;15.30;7.00;;;;;;;1.99;100.00;98447.48;106971;1279;22759;-84
2024/01/27 05:12:17;;;;;;;19.00;7.30;;;;;;;2.00;100.00;98455.79;106906;1280;24347;-83
2024/01/27 05:14:46;;;;;;;12.40;6.60;;;;;;;1.98;100.00;98454.44;107057;1273;25402;-82
2024/01/27 05:17:14;;;;;;;16.80;6.20;;;;;;;1.99;100.00;98461.25;106903;1278;25410;-82
2024/01/27 05:19:42;;;;;;;15.90;6.60;;;;;;;2.02;100.00;98461.60;106943;1279;22882;-81
2024/01/27 05:22:10;;;;;;;14.70;6.70;;;;;;;2.01;100.00;98458.27;106972;1280;22615;-81
2024/01/27 05:24:38;;;;;;;18.90;6.90;;;;;;;2.01;100.00;98451.80;106826;1269;22752;-82
2024/01/27 05:27:06;;;;;;;14.40;7.00;;;;;;;2.02;100.00;98450.11;106906;1275;22563;-83
2024/01/27 05:29:37;;;;;;;18.70;7.20;;;;;;;2.03;100.00;98454.39;106917;1280;24239;-82
2024/01/27 05:32:05;;;;;;;15.80;6.50;;;;;;;2.01;100.00;98455.98;106933;1273;22644;-83
2024/01/27 05:34:33;;;;;;;13.70;6.90;;;;;;;2.01;100.00;98457.16;107008;1266;24209;-83
2024/01/27 05:37:02;;;;;;;16.20;7.40;;;;;;;2.01;100.00;98446.85;106870;1278;23005;-82
2024/01/27 05:39:32;;;;;;;14.70;7.90;;;;;;;2.03;100.00;98452.85;106979;1280;24214;-82
2024/01/27 05:42:02;;;;;;;15.50;7.00;;;;;;;2.07;100.00;98446.72;108681;1275;22572;-83
2024/01/27 05:44:30;;;;;;;16.00;6.80;;;;;;;2.10;100.00;98462.69;106872;1280;24325;-83
2024/01/27 05:46:58;;;;;;;14.50;6.40;;;;;;;2.12;100.00;98458.41;106730;1280;22637;-83
2024/01/27 05:49:27;;;;;;;17.40;7.20;;;;;;;2.14;100.00;98456.79;106765;1280;22617;-83
2024/01/27 05:51:55;;;;;;;16.20;7.00;;;;;;;2.15;99.76;98463.93;106742;1280;24174;-84
2024/01/27 05:54:24;;;;;;;15.60;6.80;;;;;;;2.14;99.67;98462.46;106794;1258;22649;-84
2024/01/27 05:56:52;;;;;;;12.60;6.50;;;;;;;2.14;99.29;98462.51;106832;1275;23139;-84
2024/01/27 05:59:21;;;;;;;14.50;6.20;;;;;;;2.18;98.47;98468.14;106871;1272;22540;-84
2024/01/27 06:01:49;;;;;;;14.80;6.60;;;;;;;2.19;97.31;98475.46;106823;1278;22546;-84
2024/01/27 06:04:17;;;;;;;13.00;5.50;;;;;;;2.23;96.64;98470.58;106900;1280;22668;-85
2024/01/27 06:06:47;;;;;;;13.90;6.60;;;;;;;2.21;96.51;98476.88;106835;1280;22683;-84
2024/01/27 06:09:15;;;;;;;12.60;5.80;;;;;;;2.23;95.60;98477.12;106831;1281;25395;-82
2024/01/27 06:11:43;;;;;;;15.30;6.60;;;;;;;2.26;95.71;98484.94;106826;1281;22561;-83
2024/01/27 06:14:11;;;;;;;13.80;6.40;;;;;;;2.28;95.78;98484.16;106840;1275;22577;-83
2024/01/27 06:16:39;;;;;;;18.80;6.50;;;;;;;2.28;95.63;98483.80;106839;1280;23366;-83
2024/01/27 06:19:09;;;;;;;12.90;5.50;;;;;;;2.24;94.87;98481.11;106927;1278;23296;-84
2024/01/27 06:21:37;;;;;;;18.90;7.10;;;;;;;2.28;95.19;98486.36;107080;1279;22590;-82
2024/01/27 06:24:06;;;;;;;17.90;6.90;;;;;;;2.28;95.38;98481.95;106853;1281;22773;-82
2024/01/27 06:26:34;;;;;;;15.40;6.80;;;;;;;2.28;94.64;98497.84;106834;1281;22561;-84
2024/01/27 06:29:02;;;;;;;13.40;6.30;;;;;;;2.25;93.89;98499.05;106822;1281;23394;-83
2024/01/27 06:31:30;;;;;;;15.40;6.80;;;;;;;2.24;93.96;98497.69;106857;1281;22549;-84
2024/01/27 06:38:47;;;;;;;20.80;10.60;;;;;;;2.21;94.22;98504.95;106882;1280;22552;-84
2024/01/27 06:42:16;;;;;;;16.80;8.40;;;;;;;2.16;94.63;98509.25;106796;1282;22550;-86
2024/01/27 06:44:44;;;;;;;17.10;8.90;;;;;;;2.11;94.73;98494.71;106793;1276;22878;-86
2024/01/27 06:47:12;;;;;;;15.80;7.30;;;;;;;2.18;94.52;98506.70;106858;1275;22534;-86
2024/01/27 06:49:40;;;;;;;17.10;7.90;;;;;;;2.20;94.02;98505.77;106794;1280;24298;-84
2024/01/27 06:52:08;;;;;;;25.90;14.80;;;;;;;2.18;93.48;98528.65;106848;1282;24203;-84
2024/01/27 06:54:41;;;;;;;23.30;14.10;;;;;;;2.14;93.49;98504.97;106732;1272;22677;-85
2024/01/27 06:57:19;;;;;;;19.70;12.50;;;;;;;2.18;93.44;98517.33;107720;1282;22631;-83
2024/01/27 06:59:55;;;;;;;16.70;9.30;;;;;;;2.19;92.68;98517.92;108704;1281;25521;-85
2024/01/27 07:02:28;;;;;;;16.60;8.60;;;;;;;2.19;92.19;98537.40;107007;1281;22629;-83
2024/01/27 07:04:57;;;;;;;16.90;7.70;;;;;;;2.19;92.03;98536.38;106857;1278;25251;-82
2024/01/27 07:07:27;;;;;;;15.20;7.50;;;;;;;2.20;91.22;98540.23;106853;1259;22613;-82
2024/01/27 07:09:56;;;;;;;13.30;6.30;;;;;;;2.21;91.05;98553.35;106901;1280;25300;-82
2024/01/27 07:12:24;;;;;;;14.10;6.40;;;;;;;2.24;90.91;98530.50;106943;1280;22643;-82
2024/01/27 07:14:54;;;;;;;24.10;9.30;;;;;;;2.25;91.04;98532.11;108727;1280;22545;-84
2024/01/27 07:17:25;;;;;;;15.40;6.40;;;;;;;2.24;91.08;98536.35;107883;1280;22567;-83
2024/01/27 07:19:54;;;;;;;15.90;6.40;;;;;;;2.24;90.65;98533.60;106970;1280;23840;-83
2024/01/27 07:22:23;;;;;;;12.10;5.90;;;;;;;2.24;91.09;98540.39;106934;1279;24174;-84
2024/01/27 07:26:14;;;;;;;12.80;6.60;;;;;;;2.28;90.28;98550.06;106643;1285;25416;-84
2024/01/27 07:28:45;;;;;;;17.40;7.40;;;;;;;2.28;89.66;98542.09;106645;1284;25363;-83
2024/01/27 07:31:13;;;;;;;13.80;7.30;;;;;;;2.26;89.55;98534.59;106674;1285;22547;-84
2024/01/27 07:33:42;;;;;;;18.20;9.30;;;;;;;2.29;89.05;98549.44;106440;1283;22616;-85
2024/01/27 07:36:11;;;;;;;16.70;8.70;;;;;;;2.31;89.07;98539.60;106484;1286;25486;-84
2024/01/27 07:38:39;;;;;;;19.00;7.00;;;;;;;2.30;88.91;98542.71;106491;1281;22588;-85
2024/01/27 07:41:07;;;;;;;15.50;7.30;;;;;;;2.27;88.96;98541.74;106567;1283;24252;-83
2024/01/27 07:43:35;;;;;;;15.80;8.80;;;;;;;2.29;89.25;98531.16;106685;1266;25420;-82
2024/01/27 07:46:04;;;;;;;17.50;8.70;;;;;;;2.24;88.99;98543.10;106956;1276;22536;-85
2024/01/27 07:48:32;;;;;;;21.40;10.20;;;;;;;2.30;88.50;98546.23;106932;1278;23316;-85
2024/01/27 07:51:00;;;;;;;25.30;10.20;;;;;;;2.30;88.09;98538.99;106894;1279;24344;-84
2024/01/27 07:53:28;;;;;;;18.80;8.80;;;;;;;2.30;88.86;98557.92;106785;1280;22546;-85
2024/01/27 07:55:56;;;;;;;12.90;6.60;;;;;;;2.31;88.53;98549.75;106771;1280;25492;-84
2024/01/27 07:58:25;;;;;;;21.10;10.60;;;;;;;2.30;88.57;98543.73;106767;1277;25443;-84
2024/01/27 08:00:54;;;;;;;20.20;8.60;;;;;;;2.29;88.67;98539.86;106755;1278;22763;-85
2024/01/27 08:03:22;;;;;;;15.90;7.70;;;;;;;2.29;88.15;98559.50;106751;1280;26518;-84
2024/01/27 08:05:50;;;;;;;14.60;6.70;;;;;;;2.29;87.42;98559.83;106808;1276;22643;-83
2024/01/27 08:08:18;;;;;;;19.00;9.60;;;;;;;2.28;87.72;98560.38;106828;1280;23129;-84
2024/01/27 08:10:46;;;;;;;16.90;9.50;;;;;;;2.29;88.03;98558.11;106888;1280;23407;-84
2024/01/27 08:13:15;;;;;;;21.10;10.40;;;;;;;2.31;87.51;98566.35;106919;1280;25278;-85
2024/01/27 08:15:43;;;;;;;18.50;9.80;;;;;;;2.32;87.22;98565.30;106893;1273;22837;-83
2024/01/27 08:18:11;;;;;;;18.40;9.50;;;;;;;2.29;87.15;98585.67;106855;1280;22807;-84
2024/01/27 08:20:39;;;;;;;16.00;8.10;;;;;;;2.29;87.22;98571.61;106782;1281;24348;-85
2024/01/27 08:23:08;;;;;;;18.60;8.50;;;;;;;2.30;87.23;98561.70;106831;1281;22575;-82
2024/01/27 08:25:36;;;;;;;15.70;7.40;;;;;;;2.31;87.33;98569.01;106865;1280;25415;-85
2024/01/27 08:28:05;;;;;;;13.70;7.20;;;;;;;2.30;86.71;98572.55;106873;1277;23897;-84
2024/01/27 08:30:33;;;;;;;17.80;7.40;;;;;;;2.25;86.93;98572.08;106898;1280;22650;-86
2024/01/27 08:33:01;;;;;;;15.50;6.80;;;;;;;2.25;86.79;98568.56;106848;1280;24348;-84
2024/01/27 08:35:29;;;;;;;14.60;8.80;;;;;;;2.25;86.58;98571.30;106886;1278;22664;-83
2024/01/27 08:37:57;;;;;;;14.70;6.20;;;;;;;2.25;86.74;98580.09;106999;1279;22561;-83
2024/01/27 08:40:25;;;;;;;16.30;7.00;;;;;;;2.24;86.32;98567.80;106950;1273;24839;-84
2024/01/27 08:42:53;;;;;;;14.30;7.60;;;;;;;2.25;85.91;98567.17;106859;1280;25469;-84
2024/01/27 08:45:21;;;;;;;14.90;6.60;;;;;;;2.23;86.10;98572.10;107051;1262;24486;-85
2024/01/27 08:47:50;;;;;;;15.80;6.60;;;;;;;2.24;86.38;98589.98;107099;1279;22536;-86
2024/01/27 08:50:19;;;;;;;16.70;7.90;;;;;;;2.27;86.16;98574.95;108383;1277;22575;-85
2024/01/27 08:52:47;;;;;;;17.40;7.50;;;;;;;2.29;86.43;98572.67;109361;1276;22578;-85
2024/01/27 08:55:18;;;;;;;19.10;8.30;;;;;;;2.29;86.74;98554.39;109512;1270;22298;-85
2024/01/27 08:57:46;;;;;;;17.30;7.70;;;;;;;2.30;87.34;98575.73;106898;1280;25422;-83
2024/01/27 09:00:16;;;;;;;17.50;7.40;;;;;;;2.27;87.99;98566.41;106906;1280;25282;-86
2024/01/27 09:02:45;;;;;;;17.10;7.80;;;;;;;2.20;89.01;98573.09;106764;1278;22584;-84
2024/01/27 09:05:13;;;;;;;14.60;7.10;;;;;;;2.09;90.06;98594.54;106833;1273;22537;-83
2024/01/27 09:07:42;;;;;;;13.50;7.40;;;;;;;1.93;91.32;98572.88;106784;1280;22574;-83
2024/01/27 09:10:13;;;;;;;13.80;7.80;;;;;;;1.84;92.80;98571.48;106861;1280;23133;-85
2024/01/27 09:12:43;;;;;;;14.00;7.20;;;;;;;1.73;94.31;98568.73;106948;1275;24197;-83
2024/01/27 09:15:12;;;;;;;13.80;6.70;;;;;;;1.64;95.29;98573.75;106849;1280;22705;-83
2024/01/27 09:17:40;;;;;;;15.90;8.20;;;;;;;1.56;96.36;98587.34;106806;1280;22545;-85
2024/01/27 09:20:09;;;;;;;17.60;7.70;;;;;;;1.49;97.64;98593.98;106886;1260;22620;-87
2024/01/27 09:22:37;;;;;;;14.50;7.80;;;;;;;1.39;98.44;98596.62;106904;1280;22571;-86
2024/01/27 09:25:06;;;;;;;14.50;8.10;;;;;;;1.24;99.52;98573.50;106972;1280;23973;-85
2024/01/27 09:27:34;;;;;;;17.40;9.10;;;;;;;1.28;100.00;98584.77;106833;1280;22649;-83
2024/01/27 09:30:03;;;;;;;18.40;9.50;;;;;;;1.21;100.00;98590.29;106814;1281;22592;-84
2024/01/27 09:32:51;;;;;;;24.90;15.40;;;;;;;1.17;100.00;98587.63;106841;1281;23135;-84
2024/01/27 09:35:20;;;;;;;16.60;10.00;;;;;;;1.10;100.00;98590.39;106978;1276;25277;-87
2024/01/27 09:37:50;;;;;;;15.30;8.00;;;;;;;1.08;100.00;98582.70;106676;1280;24183;-84
2024/01/27 09:40:20;;;;;;;20.20;10.80;;;;;;;1.04;100.00;98586.83;106695;1278;22560;-83
2024/01/27 09:43:13;;;;;;;21.40;12.40;;;;;;;1.03;100.00;98586.69;106837;1279;22586;-84
2024/01/27 09:46:02;;;;;;;22.50;12.50;;;;;;;0.99;100.00;98578.67;106965;1274;22536;-84
2024/01/27 09:48:32;;;;;;;16.80;9.30;;;;;;;0.98;100.00;98582.39;106807;1276;22715;-87
2024/01/27 09:51:02;;;;;;;19.10;10.60;;;;;;;0.94;100.00;98575.38;106900;1278;26522;-86
2024/01/27 09:53:30;;;;;;;18.50;10.40;;;;;;;0.93;100.00;98582.13;106949;1280;25054;-87
2024/01/27 09:55:59;;;;;;;17.00;9.50;;;;;;;0.94;100.00;98582.80;106719;1280;188009;-86
2024/01/27 09:58:29;;;;;;;15.90;8.40;;;;;;;0.95;100.00;98579.65;106884;1276;24325;-85
2024/01/27 10:00:59;;;;;;;13.90;8.70;;;;;;;0.89;100.00;98590.36;106951;1280;24613;-86
2024/01/27 10:03:28;;;;;;;16.70;9.60;;;;;;;0.82;100.00;98584.48;106925;1280;22587;-84
2024/01/27 10:05:58;;;;;;;16.70;9.70;;;;;;;0.76;100.00;98579.34;106805;1281;22582;-85
2024/01/27 10:08:26;;;;;;;16.50;9.00;;;;;;;0.74;100.00;98579.77;106863;1280;22565;-86
2024/01/27 10:10:58;;;;;;;15.80;9.10;;;;;;;0.72;100.00;98583.13;106854;1281;25388;-87
2024/01/27 10:13:26;;;;;;;17.80;8.90;;;;;;;0.65;100.00;98584.63;106872;1280;22554;-85
2024/01/27 10:16:44;;;;;;;16.30;9.90;;;;;;;0.58;100.00;98589.45;106841;1281;22547;-86
2024/01/27 10:19:19;;;;;;;15.30;9.70;;;;;;;0.57;100.00;98579.59;106775;1281;22547;-87
2024/01/27 10:22:28;;;;;;;16.80;10.50;;;;;;;0.64;100.00;98584.46;106928;1281;22644;-86
2024/01/27 10:25:17;;;;;;;16.80;8.80;;;;;;;0.66;100.00;98594.89;107369;1279;22618;-91
2024/01/27 10:27:45;;;;;;;15.80;8.70;;;;;;;0.66;100.00;98596.48;108533;1281;22585;-88
2024/01/27 10:30:18;;;;;;;16.90;9.40;;;;;;;0.63;100.00;98589.70;109692;1280;22543;-85
2024/01/27 10:32:59;;;;;;;18.20;9.20;;;;;;;0.67;100.00;98596.80;107822;1280;22747;-85
2024/01/27 10:35:31;;;;;;;16.60;10.30;;;;;;;0.70;100.00;98602.57;106927;1280;24049;-88
2024/01/27 10:38:00;;;;;;;16.50;9.90;;;;;;;0.72;100.00;98595.99;106788;1280;24310;-87
2024/01/27 10:40:31;;;;;;;16.10;9.30;;;;;;;0.73;100.00;98600.10;106900;1280;22549;-88
2024/01/27 10:43:08;;;;;;;17.30;10.60;;;;;;;0.72;100.00;98597.16;106923;1280;22582;-87
2024/01/27 10:45:39;;;;;;;22.70;11.00;;;;;;;0.72;100.00;98602.31;106936;1280;25958;-87
2024/01/27 10:48:10;;;;;;;19.40;11.40;;;;;;;0.71;100.00;98601.79;106895;1281;22564;-88
2024/01/27 10:50:40;;;;;;;17.40;9.40;;;;;;;0.71;100.00;98598.66;107760;1281;22574;-88
2024/01/27 10:53:30;;;;;;;16.60;10.20;;;;;;;0.73;100.00;98596.05;106996;1280;22593;-89
2024/01/27 10:55:59;;;;;;;18.40;10.10;;;;;;;0.73;100.00;98600.95;106947;1280;22794;-89
2024/01/27 10:58:30;;;;;;;14.60;9.20;;;;;;;0.73;100.00;98602.11;106923;1280;22809;-87
2024/01/27 11:01:00;;;;;;;18.90;10.80;;;;;;;0.71;100.00;98594.03;106850;1280;22523;-87
2024/01/27 11:03:30;;;;;;;18.50;10.30;;;;;;;0.74;100.00;98601.41;106911;1280;24337;-88
2024/01/27 11:05:59;;;;;;;23.80;14.20;;;;;;;0.76;100.00;98598.60;106813;1280;22801;-88
2024/01/27 11:08:29;;;;;;;24.10;15.70;;;;;;;0.77;100.00;98596.30;107097;1280;24735;-88
2024/01/27 11:10:59;;;;;;;19.60;11.50;;;;;;;0.79;100.00;98594.21;107408;1280;24209;-88
2024/01/27 11:13:33;;;;;;;19.40;12.30;;;;;;;0.78;100.00;98595.61;107356;1281;22562;-85
2024/01/27 11:16:01;;;;;;;21.10;12.60;;;;;;;0.80;100.00;98592.04;106792;1281;24250;-88
2024/01/27 11:18:29;;;;;;;22.20;14.00;;;;;;;0.84;100.00;98589.39;106891;1273;22715;-86
2024/01/27 11:20:59;;;;;;;20.40;12.30;;;;;;;0.88;100.00;98604.00;106884;1281;25349;-88
2024/01/27 11:23:33;;;;;;;19.30;11.30;;;;;;;0.91;100.00;98604.38;106942;1281;22514;-87
2024/01/27 11:26:08;;;;;;;16.30;10.50;;;;;;;0.96;100.00;98597.45;106873;1271;24324;-89
2024/01/27 11:28:40;;;;;;;18.60;11.80;;;;;;;0.98;100.00;98602.58;107678;1280;22547;-90
2024/01/27 11:31:11;;;;;;;30.20;18.30;;;;;;;1.00;100.00;98599.92;107127;1281;22963;-88
2024/01/27 11:33:44;;;;;;;28.10;16.10;;;;;;;1.04;100.00;98609.00;107845;1281;25546;-87
2024/01/27 11:36:38;;;;;;;18.10;11.10;;;;;;;1.06;100.00;98607.80;107133;1260;24244;-90